FLH409 KFXE-KHXD
Flight info
| Callsign | FLH409 |
|---|---|
| Flight time | N/A |
| Altitude | 43000 |
| Route | FRSBE2 STYMY ZERBO Q87 VIYAP |
| Aircraft | C700/M-SBDGHM1RWXY/LB2 |
Departure
| Time | 2026-04-22 18:59 |
|---|---|
| Airport | Fort Lauderdale Executive Airport (KFXE) |
Arrival
| Time | N/A |
|---|---|
| Airport | Hilton Head Airport (KHXD) |
| Time | Latitude | Longitude | Altitude | Speed | Heading |
|---|---|---|---|---|---|
| 2026-04-22 18:51 | 26.19466 | -80.17061 | 18 ft | 0 kts | 221° |
| 2026-04-22 18:55 | 26.19470 | -80.17076 | 18 ft | 4 kts | 321° |
| 2026-04-22 18:55 | 26.19529 | -80.17092 | 19 ft | 9 kts | 14° |
| 2026-04-22 18:55 | 26.19584 | -80.17101 | 18 ft | 11 kts | 305° |
| 2026-04-22 18:56 | 26.19652 | -80.17198 | 19 ft | 18 kts | 309° |
| 2026-04-22 18:56 | 26.19697 | -80.17309 | 21 ft | 15 kts | 263° |
| 2026-04-22 18:56 | 26.19685 | -80.17428 | 20 ft | 16 kts | 264° |
| 2026-04-22 18:56 | 26.19671 | -80.17564 | 17 ft | 19 kts | 264° |
| 2026-04-22 18:57 | 26.19657 | -80.17712 | 15 ft | 19 kts | 264° |
| 2026-04-22 18:57 | 26.19642 | -80.17855 | 14 ft | 17 kts | 263° |
| 2026-04-22 18:57 | 26.19646 | -80.17978 | 11 ft | 15 kts | 294° |
| 2026-04-22 18:57 | 26.19693 | -80.18066 | 9 ft | 10 kts | 326° |
| 2026-04-22 18:58 | 26.19744 | -80.18078 | 9 ft | 5 kts | 2° |
| 2026-04-22 18:58 | 26.19759 | -80.18061 | 9 ft | 3 kts | 73° |
| 2026-04-22 18:58 | 26.19773 | -80.17934 | 11 ft | 56 kts | 83° |
| 2026-04-22 18:58 | 26.19850 | -80.17090 | 149 ft | 153 kts | 83° |
| 2026-04-22 18:59 | 26.19976 | -80.15776 | 1273 ft | 181 kts | 85° |
| 2026-04-22 18:59 | 26.20101 | -80.14257 | 2610 ft | 212 kts | 84° |
| 2026-04-22 18:59 | 26.20304 | -80.12550 | 4095 ft | 231 kts | 83° |
| 2026-04-22 18:59 | 26.20554 | -80.10723 | 5712 ft | 246 kts | 82° |
| 2026-04-22 19:00 | 26.20913 | -80.08820 | 7346 ft | 257 kts | 70° |
| 2026-04-22 19:00 | 26.21969 | -80.07195 | 8899 ft | 267 kts | 39° |
| 2026-04-22 19:00 | 26.23694 | -80.06319 | 10396 ft | 275 kts | 8° |
| 2026-04-22 19:00 | 26.25607 | -80.06436 | 11796 ft | 279 kts | 341° |
| 2026-04-22 19:01 | 26.27274 | -80.07511 | 13191 ft | 280 kts | 314° |
| 2026-04-22 19:01 | 26.28062 | -80.08648 | 14125 ft | 281 kts | 297° |
| 2026-04-22 19:02 | 26.28403 | -80.09433 | 14621 ft | 282 kts | 291° |
| 2026-04-22 19:02 | 26.29084 | -80.11468 | 15852 ft | 286 kts | 289° |
| 2026-04-22 19:02 | 26.29852 | -80.13529 | 17051 ft | 292 kts | 294° |
| 2026-04-22 19:02 | 26.30766 | -80.15567 | 18234 ft | 297 kts | 296° |
| 2026-04-22 19:03 | 26.31705 | -80.17634 | 19302 ft | 301 kts | 294° |
| 2026-04-22 19:03 | 26.32610 | -80.19745 | 20349 ft | 303 kts | 294° |
| 2026-04-22 19:03 | 26.33519 | -80.21874 | 21399 ft | 305 kts | 294° |
| 2026-04-22 19:03 | 26.34451 | -80.24020 | 22436 ft | 308 kts | 294° |
| 2026-04-22 19:04 | 26.35388 | -80.26180 | 23449 ft | 312 kts | 294° |
| 2026-04-22 19:04 | 26.36334 | -80.28365 | 24311 ft | 314 kts | 294° |
| 2026-04-22 19:04 | 26.37282 | -80.30564 | 25152 ft | 316 kts | 293° |
| 2026-04-22 19:04 | 26.38239 | -80.32779 | 25959 ft | 318 kts | 293° |
| 2026-04-22 19:05 | 26.39201 | -80.35005 | 26749 ft | 320 kts | 292° |
| 2026-04-22 19:05 | 26.40171 | -80.37253 | 27520 ft | 322 kts | 292° |
| 2026-04-22 19:05 | 26.41146 | -80.39513 | 28271 ft | 325 kts | 292° |
| 2026-04-22 19:05 | 26.42127 | -80.41789 | 29009 ft | 327 kts | 292° |
| 2026-04-22 19:06 | 26.43116 | -80.44087 | 29738 ft | 330 kts | 291° |
| 2026-04-22 19:06 | 26.44114 | -80.46402 | 30434 ft | 332 kts | 291° |
| 2026-04-22 19:06 | 26.45119 | -80.48731 | 31040 ft | 334 kts | 292° |
| 2026-04-22 19:07 | 26.47813 | -80.53055 | 32186 ft | 347 kts | 306° |
| 2026-04-22 19:07 | 26.49566 | -80.54944 | 32761 ft | 354 kts | 313° |
| 2026-04-22 19:07 | 26.51566 | -80.56584 | 33302 ft | 362 kts | 320° |
| 2026-04-22 19:07 | 26.53796 | -80.57932 | 33843 ft | 372 kts | 327° |
| 2026-04-22 19:08 | 26.56190 | -80.58930 | 34325 ft | 382 kts | 334° |
| 2026-04-22 19:08 | 26.58766 | -80.59729 | 34758 ft | 385 kts | 334° |
| 2026-04-22 19:08 | 26.61340 | -80.60555 | 35206 ft | 386 kts | 334° |
| 2026-04-22 19:08 | 26.63930 | -80.61388 | 35634 ft | 388 kts | 334° |
| 2026-04-22 19:09 | 26.66525 | -80.62209 | 36047 ft | 390 kts | 334° |
| 2026-04-22 19:09 | 26.69142 | -80.63037 | 36446 ft | 391 kts | 334° |